Flight Track Log - Related Links

Times and Time Zones

All times are in EDT time to prevent confusion due to time zone crossing. See the SWA22 flight status page for this flight to view local times or setup timezone preferences in your user account.


Time Position Orientation Groundspeed Altitude Reporting Facility
EDT Latitude Longitude Course Direction KTS MPH feet Rate Location/Type
Sat 09:33:08 PM 41.7889 -87.8044 201° Southwest 198 228 3,000  Level Chicago Center
Sat 09:34:09 PM 41.7394 -87.8467 213° Southwest 209 241 6,200 3,492 Climbing Chicago Center
Sat 09:35:10 PM 41.6833 -87.9033 217° Southwest 243 280 10,100 3,049 Climbing Chicago Center
Sat 09:36:11 PM 41.6225 -87.9633 216° Southwest 269 310 12,400 3,000 Climbing Chicago Center
Sat 09:37:12 PM 41.5375 -88.0464 216° Southwest 320 368 16,200 3,223 Climbing Chicago Center
Sat 09:38:00 PM 41.2846 -88.2244 201° Southwest  Level FlightAware Approximate
Sat 09:38:12 PM 41.4636 -88.1208 217° Southwest 345 397 18,900  Level Chicago Center
Sat 09:39:13 PM 41.3797 -88.1908 212° Southwest 371 427 21,800 2,754 Climbing Chicago Center
Sat 09:40:14 PM 41.2756 -88.2383 199° South 401 461 24,500 2,361 Climbing Chicago Center
Sat 09:41:15 PM 41.1669 -88.2881 199° South 414 476 26,600 2,066 Climbing Chicago Center
Sat 09:42:16 PM 41.0542 -88.3389 199° South 428 493 28,700 2,182 Climbing Chicago Center
Sat 09:43:16 PM 40.9144 -88.4031 199° South 443 510 31,000 2,213 Climbing Chicago Center
Sat 09:44:18 PM 40.8128 -88.4794 210° Southwest 424 488 33,200 1,770 Climbing Chicago Center
Sat 09:45:18 PM 40.7222 -88.5769 219° Southwest 418 481 34,600 1,587 Climbing Chicago Center
Sat 09:46:19 PM 40.6308 -88.6717 218° Southwest 419 482 36,400 1,835 Climbing Chicago Center
Sat 09:47:19 PM 40.5436 -88.7669 220° Southwest 412 474 38,300 1,587 Climbing Chicago Center
Sat 09:48:20 PM 40.4556 -88.8633 220° Southwest 408 470 39,600 836 Climbing Chicago Center
Sat 09:49:21 PM 40.3703 -88.9550 219° Southwest 397 457 40,000 197 Climbing Chicago Center
Sat 09:50:22 PM 40.2839 -89.0481 219° Southwest 398 458 40,000  Level Chicago Center
Sat 09:51:22 PM 40.1969 -89.1383 218° Southwest 397 457 40,000  Level Chicago Center
Sat 09:52:23 PM 40.1103 -89.2317 219° Southwest 399 459 40,000  Level Chicago Center
Sat 09:53:24 PM 40.0225 -89.3217 218° Southwest 398 458 40,000  Level Chicago Center
Sat 09:54:25 PM 39.9372 -89.4128 219° Southwest 395 455 40,000  Level Chicago Center
Sat 09:55:25 PM 39.8511 -89.5017 218° Southwest 394 453 40,000  Level Chicago Center
Sat 09:56:26 PM 39.7658 -89.5908 219° Southwest 392 451 40,000  Level Chicago Center
Sat 09:57:27 PM 39.6753 -89.6853 219° Southwest 391 450 40,000  Level Kansas City Center
Sat 09:58:27 PM 39.5911 -89.7736 219° Southwest 389 448 40,000  Level Kansas City Center
Sat 09:59:31 PM 39.5064 -89.8600 218° Southwest 389 448 40,000  Level Kansas City Center
Sat 10:00:31 PM 39.4211 -89.9483 219° Southwest 392 451 40,000  Level Kansas City Center
Sat 10:01:34 PM 39.3369 -90.0358 219° Southwest 390 449 40,000  Level Kansas City Center
Sat 10:02:34 PM 39.2525 -90.1222 218° Southwest 389 448 40,000  Level Kansas City Center
Sat 10:03:35 PM 39.1672 -90.2092 218° Southwest 391 450 40,000  Level Kansas City Center
Sat 10:04:34 PM 39.0828 -90.2956 218° Southwest 391 450 40,000  Level Kansas City Center
Sat 10:05:34 PM 38.9997 -90.3817 219° Southwest 388 447 40,000  Level Kansas City Center
Sat 10:06:38 PM 38.9008 -90.4797 218° Southwest 381 438 40,000  Level Kansas City Center
Sat 10:07:37 PM 38.8172 -90.5633 218° Southwest 379 436 40,000  Level Kansas City Center
Sat 10:08:38 PM 38.7306 -90.6503 218° Southwest 388 447 40,000  Level Kansas City Center
Sat 10:09:40 PM 38.6508 -90.7294 218° Southwest 387 445 40,000  Level Kansas City Center
Sat 10:10:40 PM 38.5664 -90.8136 218° Southwest 389 448 40,000  Level Kansas City Center
Sat 10:11:41 PM 38.4822 -90.8989 218° Southwest 389 448 40,000  Level Kansas City Center
Sat 10:12:42 PM 38.3964 -90.9836 218° Southwest 392 451 40,000  Level Kansas City Center
Sat 10:13:42 PM 38.3111 -91.0672 218° Southwest 389 448 40,000  Level Kansas City Center
Sat 10:14:41 PM 38.2250 -91.1508 217° Southwest 389 448 40,000  Level Kansas City Center
Sat 10:15:44 PM 38.1289 -91.2450 218° Southwest 390 449 40,000  Level Kansas City Center
Sat 10:16:42 PM 38.0419 -91.3300 218° Southwest 392 451 40,000  Level Kansas City Center
Sat 10:17:43 PM 37.9539 -91.4164 218° Southwest 395 455 40,000  Level Kansas City Center
Sat 10:18:46 PM 37.8667 -91.5031 218° Southwest 395 455 40,000  Level Kansas City Center
Sat 10:19:46 PM 37.7783 -91.5883 217° Southwest 396 456 40,000  Level Kansas City Center
Sat 10:20:47 PM 37.6906 -91.6736 218° Southwest 394 453 40,000  Level Kansas City Center
Sat 10:21:45 PM 37.6042 -91.7583 218° Southwest 390 449 40,000  Level Kansas City Center
Sat 10:22:49 PM 37.5169 -91.8411 217° Southwest 389 448 40,000  Level Kansas City Center
Sat 10:23:49 PM 37.4306 -91.9261 218° Southwest 390 449 40,000  Level Kansas City Center
Sat 10:24:50 PM 37.3433 -92.0089 217° Southwest 389 448 40,000  Level Kansas City Center
Sat 10:25:51 PM 37.2561 -92.0931 218° Southwest 390 449 40,000  Level Kansas City Center
Sat 10:26:49 PM 37.1664 -92.1783 217° Southwest 396 456 40,000  Level Kansas City Center
Sat 10:27:50 PM 37.0797 -92.2614 217° Southwest 392 451 40,000  Level Kansas City Center
Sat 10:28:50 PM 36.9919 -92.3450 217° Southwest 393 452 40,000  Level Kansas City Center
Sat 10:29:51 PM 36.9039 -92.4278 217° Southwest 393 452 40,000  Level Kansas City Center
Sat 10:30:32 PM 36.8344 -92.4903 216° Southwest 403 464 40,000  Level Memphis Center
Sat 10:31:32 PM 36.7497 -92.5736 218° Southwest 398 458 40,000  Level Memphis Center
Sat 10:32:32 PM 36.6628 -92.6539 217° Southwest 398 458 40,000  Level Memphis Center
Sat 10:33:32 PM 36.5864 -92.7267 217° Southwest 398 458 40,000  Level Memphis Center
Sat 10:34:32 PM 36.4975 -92.8067 216° Southwest 398 458 40,000  Level Memphis Center
Sat 10:35:32 PM 36.4103 -92.8867 216° Southwest 398 458 40,000  Level Memphis Center
Sat 10:36:32 PM 36.3211 -92.9689 217° Southwest 398 458 40,000  Level Memphis Center
Sat 10:37:32 PM 36.2339 -93.0483 216° Southwest 398 458 40,000  Level Memphis Center
Sat 10:38:32 PM 36.1467 -93.1303 217° Southwest 398 458 40,000  Level Memphis Center
Sat 10:39:32 PM 36.0550 -93.2144 217° Southwest 403 464 40,000  Level Memphis Center
Sat 10:40:32 PM 35.9678 -93.2936 216° Southwest 403 464 40,000  Level Memphis Center
Sat 10:41:32 PM 35.8781 -93.3775 217° Southwest 403 464 40,000  Level Memphis Center
Sat 10:42:32 PM 35.7864 -93.4586 216° Southwest 403 464 40,000  Level Memphis Center
Sat 10:43:32 PM 35.6969 -93.5397 216° Southwest 403 464 40,000  Level Memphis Center
Sat 10:44:32 PM 35.5986 -93.6278 216° Southwest 403 464 40,000  Level Memphis Center
Sat 10:45:32 PM 35.5089 -93.7083 216° Southwest 408 470 40,000  Level Memphis Center
Sat 10:46:32 PM 35.4214 -93.7839 215° Southwest 398 458 40,000  Level Memphis Center
Sat 10:47:32 PM 35.3336 -93.8667 218° Southwest 398 458 40,000  Level Memphis Center
Sat 10:48:32 PM 35.2436 -93.9469 216° Southwest 398 458 40,000  Level Memphis Center
Sat 10:49:32 PM 35.1558 -94.0244 216° Southwest 398 458 40,000  Level Memphis Center
Sat 10:50:32 PM 35.0681 -94.1017 216° Southwest 398 458 40,000  Level Memphis Center
Sat 10:52:32 PM 34.8911 -94.2619 217° Southwest 395 455 40,000  Level Fort Worth Center
Sat 10:53:32 PM 34.8033 -94.3411 217° Southwest 400 460 40,000  Level Fort Worth Center
Sat 10:54:32 PM 34.7156 -94.4200 216° Southwest 400 460 40,000  Level Fort Worth Center
Sat 10:55:32 PM 34.6236 -94.4989 215° Southwest 405 466 40,000  Level Fort Worth Center
Sat 10:56:32 PM 34.5336 -94.5750 215° Southwest 405 466 40,000  Level Fort Worth Center
Sat 10:57:32 PM 34.4436 -94.6561 217° Southwest 405 466 40,000  Level Fort Worth Center
Sat 10:58:32 PM 34.3533 -94.7319 215° Southwest 405 466 40,000  Level Fort Worth Center
Sat 10:59:32 PM 34.2633 -94.8100 216° Southwest 405 466 40,000  Level Fort Worth Center
Sat 11:00:32 PM 34.1731 -94.8906 216° Southwest 405 466 40,000  Level Fort Worth Center
Sat 11:01:32 PM 34.0808 -94.9686 215° Southwest 405 466 40,000  Level Fort Worth Center
Sat 11:02:32 PM 33.9986 -95.0361 214° Southwest 405 466 40,000  Level Fort Worth Center
Sat 11:03:32 PM 33.9103 -95.1136 216° Southwest 405 466 40,000  Level Fort Worth Center
Sat 11:04:32 PM 33.8178 -95.1908 215° Southwest 405 466 40,000  Level Fort Worth Center
Sat 11:05:32 PM 33.7294 -95.2681 216° Southwest 405 466 40,000  Level Fort Worth Center
Sat 11:06:32 PM 33.6408 -95.3450 216° Southwest 400 460 40,000  Level Fort Worth Center
Sat 11:07:32 PM 33.5503 -95.4194 214° Southwest 400 460 40,000  Level Fort Worth Center
Sat 11:08:32 PM 33.4597 -95.4964 215° Southwest 400 460 40,000  Level Fort Worth Center
Sat 11:09:32 PM 33.3689 -95.5728 215° Southwest 400 460 40,000  Level Fort Worth Center
Sat 11:10:32 PM 33.2719 -95.6569 216° Southwest 400 460 40,000  Level Fort Worth Center
Sat 11:11:32 PM 33.1833 -95.7306 215° Southwest 400 460 40,000  Level Fort Worth Center
Sat 11:12:32 PM 33.0944 -95.8042 215° Southwest 400 460 40,000  Level Fort Worth Center
Sat 11:13:32 PM 33.0036 -95.8775 214° Southwest 400 460 40,000  Level Fort Worth Center
Sat 11:14:32 PM 32.9167 -95.9508 215° Southwest 392 451 40,000  Level Fort Worth Center
Sat 11:15:32 PM 32.8278 -96.0217 214° Southwest 392 451 40,000  Level Fort Worth Center
Sat 11:16:32 PM 32.7492 -96.0894 216° Southwest 392 451 40,000  Level Fort Worth Center
Sat 11:17:32 PM 32.6603 -96.1622 215° Southwest 392 451 40,000  Level Fort Worth Center
Sat 11:18:32 PM 32.5669 -96.2400 215° Southwest 399 459 40,000  Level Fort Worth Center
Sat 11:19:32 PM 32.4758 -96.3125 214° Southwest 399 459 40,000  Level Fort Worth Center
Sat 11:20:32 PM 32.3825 -96.3900 215° Southwest 399 459 40,000  Level Fort Worth Center
Sat 11:21:32 PM 32.2808 -96.4722 214° Southwest 405 466 40,000  Level Fort Worth Center
Sat 11:22:32 PM 32.1917 -96.5492 216° Southwest 410 472 40,000  Level Fort Worth Center
Sat 11:23:32 PM 32.0961 -96.6261 214° Southwest 410 472 40,000  Level Fort Worth Center
Sat 11:24:32 PM 32.0025 -96.7028 215° Southwest 410 472 40,000  Level Fort Worth Center
Sat 11:25:32 PM 31.9172 -96.7744 216° Southwest 399 459 40,000 -850 Level Fort Worth Center
Sat 11:26:32 PM 31.8258 -96.8486 215° Southwest 399 459 38,300 -2,455 Descending Fort Worth Center
Sat 11:28:06 PM 31.6869 -96.9567 214° Southwest 394 453 33,700 -2,865 Descending Houston Center
Sat 11:29:07 PM 31.5925 -97.0331 215° Southwest 404 465 30,900 -2,579 Descending Houston Center
Sat 11:30:07 PM 31.4933 -97.0994 210° Southwest 408 470 28,500 -2,430 Descending Houston Center
Sat 11:31:08 PM 31.3831 -97.1397 197° South 411 473 26,000 -2,430 Descending Houston Center
Sat 11:32:08 PM 31.2817 -97.1803 199° South 387 445 23,600 -1,983 Descending Houston Center
Sat 11:33:09 PM 31.1828 -97.2192 199° South 373 429 22,000 -1,785 Descending Houston Center
Sat 11:34:09 PM 31.0872 -97.2567 199° South 363 418 20,000 -2,500 Descending Houston Center
Sat 11:35:09 PM 30.9928 -97.2947 199° South 359 413 17,000 -2,479 Descending Houston Center
Sat 11:36:10 PM 30.8989 -97.3297 198° South 367 422 15,000 -2,033 Descending Houston Center
Sat 11:37:10 PM 30.8122 -97.3689 201° Southwest 338 389 12,900 -2,132 Descending Houston Center
Sat 11:38:11 PM 30.7328 -97.4172 208° Southwest 321 369 10,700 -1,934 Descending Houston Center
Sat 11:39:11 PM 30.6633 -97.4597 208° Southwest 289 333 9,000 -1,950 Descending Houston Center
Sat 11:40:11 PM 30.5958 -97.4989 207° Southwest 273 314 6,800 -1,884 Descending Houston Center
Sat 11:41:12 PM 30.5278 -97.5414 208° Southwest 274 315 5,200 -1,438 Descending Houston Center
Sat 11:42:12 PM 30.4603 -97.5806 207° Southwest 271 312 3,900 -1,041 Descending Houston Center
Sat 11:43:13 PM 30.3989 -97.6181 208° Southwest 256 295 3,100 -694 Descending Houston Center
Sat 11:44:13 PM 30.3469 -97.6492 207° Southwest 225 259 2,500 -500 Descending Houston Center
Sat 11:45:13 PM 30.3008 -97.6744 205° Southwest 197 227 2,100 -446 Descending Houston Center
Sat 11:46:14 PM 30.2689 -97.6822 192° South 141 162 1,600 -595 Descending Houston Center
Sat 11:47:14 PM 30.2350 -97.6808 178° South 125 144 900 -700 Descending Houston Center
Sat 11:49:00 PM 30.1945 -97.6699 221° Southwest  Level Estimated

Login

Don't have an account? Register now (free) for customized features, flight alerts, and more!